DLH24B ENTC-EDDF
Flight info
| Callsign | DLH24B |
|---|---|
| Flight time | 3h 5m |
| Altitude | 36000 |
| Route | AMIMO DCT OSS DCT ROKAM/N0446F380 DCT GIMRU DCT HLZ DCT RIMET/N0410F310 T157 KOKEB/N0357F230 T157 KERAX KERAX5A |
| Aircraft | A320/M-SDE2E3FGIJ1LORWXYZ/HB1 |
Departure
| Time | 2026-05-06 18:38 |
|---|---|
| Airport | Tromsø Airport (ENTC) |
Arrival
| Time | 2026-05-06 21:43 |
|---|---|
| Airport | Frankfurt Main Airport (EDDF) |
| Time | Latitude | Longitude | Altitude | Speed | Heading |
|---|---|---|---|---|---|
| 2026-05-06 18:04 | 69.67884 | 18.90856 | 35 ft | 0 kts | 283° |
| 2026-05-06 18:05 | 69.67884 | 18.90857 | 34 ft | 0 kts | 283° |
| 2026-05-06 18:12 | 69.67884 | 18.90856 | 34 ft | 0 kts | 283° |
| 2026-05-06 18:24 | 69.67883 | 18.90881 | 34 ft | 4 kts | 283° |
| 2026-05-06 18:25 | 69.67877 | 18.90956 | 35 ft | 4 kts | 283° |
| 2026-05-06 18:25 | 69.67871 | 18.91032 | 35 ft | 4 kts | 283° |
| 2026-05-06 18:25 | 69.67866 | 18.91092 | 35 ft | 4 kts | 274° |
| 2026-05-06 18:25 | 69.67869 | 18.91165 | 35 ft | 4 kts | 240° |
| 2026-05-06 18:26 | 69.67883 | 18.91204 | 35 ft | 1 kts | 193° |
| 2026-05-06 18:33 | 69.67847 | 18.91180 | 35 ft | 9 kts | 193° |
| 2026-05-06 18:33 | 69.67786 | 18.91139 | 34 ft | 8 kts | 193° |
| 2026-05-06 18:33 | 69.67733 | 18.91103 | 34 ft | 7 kts | 193° |
| 2026-05-06 18:34 | 69.67689 | 18.91074 | 34 ft | 6 kts | 193° |
| 2026-05-06 18:34 | 69.67660 | 18.91088 | 34 ft | 4 kts | 144° |
| 2026-05-06 18:34 | 69.67643 | 18.91124 | 33 ft | 2 kts | 142° |
| 2026-05-06 18:34 | 69.67643 | 18.91128 | 35 ft | 0 kts | 134° |
| 2026-05-06 18:35 | 69.67626 | 18.91226 | 37 ft | 9 kts | 106° |
| 2026-05-06 18:36 | 69.67599 | 18.91381 | 39 ft | 15 kts | 152° |
| 2026-05-06 18:36 | 69.67469 | 18.91316 | 38 ft | 22 kts | 193° |
| 2026-05-06 18:36 | 69.67327 | 18.91219 | 34 ft | 14 kts | 193° |
| 2026-05-06 18:36 | 69.67256 | 18.91231 | 33 ft | 5 kts | 218° |
| 2026-05-06 18:37 | 69.67251 | 18.91178 | 35 ft | 1 kts | 281° |
| 2026-05-06 18:37 | 69.67264 | 18.91167 | 34 ft | 6 kts | 354° |
| 2026-05-06 18:37 | 69.67531 | 18.91357 | 41 ft | 73 kts | 13° |
| 2026-05-06 18:37 | 69.68245 | 18.91837 | 32 ft | 135 kts | 14° |
| 2026-05-06 18:38 | 69.69270 | 18.92554 | 298 ft | 161 kts | 13° |
| 2026-05-06 18:38 | 69.70449 | 18.93446 | 619 ft | 190 kts | 14° |
| 2026-05-06 18:38 | 69.71888 | 18.94434 | 644 ft | 234 kts | 12° |
| 2026-05-06 18:38 | 69.73532 | 18.95501 | 1496 ft | 238 kts | 13° |
| 2026-05-06 18:39 | 69.75121 | 18.96532 | 2649 ft | 233 kts | 13° |
| 2026-05-06 18:39 | 69.76712 | 18.97517 | 3502 ft | 236 kts | 7° |
| 2026-05-06 18:39 | 69.78317 | 18.96764 | 4284 ft | 239 kts | 329° |
| 2026-05-06 18:40 | 69.79910 | 18.88732 | 5932 ft | 241 kts | 281° |
| 2026-05-06 18:40 | 69.80175 | 18.83932 | 6795 ft | 242 kts | 278° |
| 2026-05-06 18:40 | 69.80404 | 18.79091 | 7654 ft | 243 kts | 278° |
| 2026-05-06 18:40 | 69.80648 | 18.74242 | 8525 ft | 244 kts | 276° |
| 2026-05-06 18:41 | 69.80497 | 18.69344 | 9361 ft | 248 kts | 255° |
| 2026-05-06 18:41 | 69.79718 | 18.64837 | 10041 ft | 260 kts | 235° |
| 2026-05-06 18:41 | 69.78302 | 18.61286 | 10408 ft | 282 kts | 213° |
| 2026-05-06 18:41 | 69.76529 | 18.58344 | 10608 ft | 306 kts | 212° |
| 2026-05-06 18:42 | 69.74596 | 18.55218 | 10782 ft | 330 kts | 211° |
| 2026-05-06 18:42 | 69.72527 | 18.51901 | 10981 ft | 350 kts | 211° |
| 2026-05-06 18:42 | 69.70372 | 18.48454 | 11558 ft | 357 kts | 211° |
| 2026-05-06 18:42 | 69.68194 | 18.44965 | 12239 ft | 360 kts | 212° |
| 2026-05-06 18:43 | 69.65990 | 18.41437 | 12894 ft | 364 kts | 212° |
| 2026-05-06 18:43 | 69.63767 | 18.37880 | 13552 ft | 367 kts | 212° |
| 2026-05-06 18:43 | 69.61525 | 18.34287 | 14164 ft | 371 kts | 212° |
| 2026-05-06 18:43 | 69.59267 | 18.30663 | 14782 ft | 374 kts | 212° |
| 2026-05-06 18:44 | 69.56990 | 18.27022 | 15418 ft | 375 kts | 212° |
| 2026-05-06 18:44 | 69.54702 | 18.23384 | 16064 ft | 378 kts | 211° |
| 2026-05-06 18:44 | 69.52393 | 18.19724 | 16661 ft | 381 kts | 211° |
| 2026-05-06 18:44 | 69.50062 | 18.16036 | 17236 ft | 385 kts | 211° |
| 2026-05-06 18:45 | 69.47710 | 18.12322 | 17812 ft | 388 kts | 211° |
| 2026-05-06 18:45 | 69.45334 | 18.08579 | 18344 ft | 392 kts | 211° |
| 2026-05-06 18:45 | 69.42937 | 18.04819 | 18822 ft | 396 kts | 211° |
| 2026-05-06 18:45 | 69.41337 | 18.02317 | 19141 ft | 398 kts | 210° |
| 2026-05-06 18:46 | 69.38076 | 17.97232 | 19771 ft | 401 kts | 211° |
| 2026-05-06 18:46 | 69.35636 | 17.93332 | 20222 ft | 404 kts | 211° |
| 2026-05-06 18:46 | 69.33192 | 17.89321 | 20669 ft | 407 kts | 212° |
| 2026-05-06 18:46 | 69.30741 | 17.85257 | 21095 ft | 410 kts | 212° |
| 2026-05-06 18:47 | 69.28272 | 17.81171 | 21504 ft | 413 kts | 212° |
| 2026-05-06 18:47 | 69.25783 | 17.77075 | 21955 ft | 415 kts | 211° |
| 2026-05-06 18:47 | 69.23278 | 17.72986 | 22362 ft | 418 kts | 211° |
| 2026-05-06 18:47 | 69.20783 | 17.68940 | 22743 ft | 421 kts | 211° |
| 2026-05-06 18:48 | 69.19065 | 17.66173 | 22998 ft | 423 kts | 211° |
| 2026-05-06 18:48 | 69.16499 | 17.62062 | 23367 ft | 426 kts | 211° |
| 2026-05-06 18:48 | 69.13919 | 17.57940 | 23681 ft | 429 kts | 210° |
| 2026-05-06 18:48 | 69.11319 | 17.53796 | 23981 ft | 431 kts | 210° |
| 2026-05-06 18:49 | 69.07856 | 17.48284 | 24371 ft | 434 kts | 210° |
| 2026-05-06 18:49 | 69.06076 | 17.45457 | 24566 ft | 436 kts | 210° |
| 2026-05-06 18:49 | 69.03433 | 17.41269 | 24845 ft | 438 kts | 210° |
| 2026-05-06 18:49 | 69.00777 | 17.37076 | 25123 ft | 440 kts | 210° |
| 2026-05-06 18:50 | 68.98102 | 17.32867 | 25395 ft | 442 kts | 210° |
| 2026-05-06 18:50 | 68.95421 | 17.28660 | 25698 ft | 443 kts | 210° |
| 2026-05-06 18:50 | 68.92730 | 17.24442 | 25969 ft | 445 kts | 210° |
| 2026-05-06 18:50 | 68.90026 | 17.20203 | 26224 ft | 447 kts | 210° |
| 2026-05-06 18:51 | 68.87311 | 17.15957 | 26478 ft | 449 kts | 210° |
| 2026-05-06 18:51 | 68.84584 | 17.11703 | 26700 ft | 451 kts | 210° |
| 2026-05-06 18:51 | 68.81841 | 17.07445 | 26925 ft | 453 kts | 210° |
| 2026-05-06 18:51 | 68.79119 | 17.03244 | 27133 ft | 455 kts | 210° |
| 2026-05-06 18:52 | 68.76321 | 16.99129 | 27345 ft | 457 kts | 205° |
| 2026-05-06 18:52 | 68.73353 | 16.96011 | 27624 ft | 457 kts | 197° |
| 2026-05-06 18:52 | 68.70267 | 16.93930 | 27908 ft | 457 kts | 193° |
| 2026-05-06 18:52 | 68.67164 | 16.91998 | 28202 ft | 457 kts | 193° |
| 2026-05-06 18:53 | 68.64063 | 16.90072 | 28514 ft | 457 kts | 193° |
| 2026-05-06 18:53 | 68.60960 | 16.88153 | 28823 ft | 457 kts | 193° |
| 2026-05-06 18:53 | 68.57858 | 16.86239 | 29126 ft | 457 kts | 193° |
| 2026-05-06 18:53 | 68.54755 | 16.84330 | 29441 ft | 457 kts | 193° |
| 2026-05-06 18:54 | 68.51656 | 16.82422 | 29757 ft | 457 kts | 193° |
| 2026-05-06 18:54 | 68.48557 | 16.80516 | 30046 ft | 457 kts | 193° |
| 2026-05-06 18:54 | 68.45460 | 16.78612 | 30302 ft | 457 kts | 193° |
| 2026-05-06 18:54 | 68.42362 | 16.76715 | 30560 ft | 456 kts | 193° |
| 2026-05-06 18:55 | 68.39267 | 16.74833 | 30813 ft | 456 kts | 193° |
| 2026-05-06 18:55 | 68.36170 | 16.72963 | 31071 ft | 456 kts | 193° |
| 2026-05-06 18:55 | 68.33082 | 16.71106 | 31323 ft | 455 kts | 193° |
| 2026-05-06 18:55 | 68.29987 | 16.69249 | 31593 ft | 455 kts | 193° |
| 2026-05-06 18:56 | 68.26902 | 16.67399 | 31856 ft | 454 kts | 193° |
| 2026-05-06 18:56 | 68.23816 | 16.65544 | 32119 ft | 454 kts | 193° |
| 2026-05-06 18:56 | 68.20735 | 16.63686 | 32371 ft | 454 kts | 193° |
| 2026-05-06 18:56 | 68.17649 | 16.61834 | 32629 ft | 454 kts | 193° |
| 2026-05-06 18:57 | 68.14567 | 16.60003 | 32888 ft | 454 kts | 193° |
| 2026-05-06 18:57 | 68.11482 | 16.58180 | 33149 ft | 453 kts | 193° |
| 2026-05-06 18:57 | 68.08404 | 16.56374 | 33407 ft | 453 kts | 193° |
| 2026-05-06 18:57 | 68.05361 | 16.54592 | 33653 ft | 454 kts | 193° |
| 2026-05-06 18:58 | 68.02278 | 16.52781 | 33900 ft | 453 kts | 193° |
| 2026-05-06 18:58 | 67.99198 | 16.50971 | 34141 ft | 453 kts | 193° |
| 2026-05-06 18:58 | 67.96126 | 16.49167 | 34366 ft | 452 kts | 193° |
| 2026-05-06 18:58 | 67.93057 | 16.47374 | 34576 ft | 452 kts | 193° |
| 2026-05-06 18:59 | 67.89988 | 16.45582 | 34775 ft | 452 kts | 194° |
| 2026-05-06 18:59 | 67.86918 | 16.43804 | 34972 ft | 452 kts | 193° |
| 2026-05-06 18:59 | 67.83837 | 16.42136 | 35164 ft | 452 kts | 192° |
| 2026-05-06 18:59 | 67.80750 | 16.40581 | 35344 ft | 452 kts | 192° |
| 2026-05-06 19:00 | 67.77660 | 16.39089 | 35516 ft | 452 kts | 192° |
| 2026-05-06 19:00 | 67.74562 | 16.37617 | 35700 ft | 452 kts | 192° |
| 2026-05-06 19:00 | 67.71473 | 16.36146 | 35865 ft | 452 kts | 192° |
| 2026-05-06 19:01 | 67.65263 | 16.33114 | 35918 ft | 455 kts | 192° |
| 2026-05-06 19:01 | 67.59036 | 16.30031 | 35918 ft | 456 kts | 192° |
| 2026-05-06 19:02 | 67.52801 | 16.26961 | 35917 ft | 456 kts | 192° |
| 2026-05-06 19:02 | 67.46567 | 16.23932 | 35922 ft | 456 kts | 192° |
| 2026-05-06 19:03 | 67.40334 | 16.20920 | 35923 ft | 456 kts | 192° |
| 2026-05-06 19:03 | 67.34133 | 16.17934 | 35917 ft | 455 kts | 192° |
| 2026-05-06 19:04 | 67.27901 | 16.14952 | 35921 ft | 456 kts | 192° |
| 2026-05-06 19:04 | 67.21664 | 16.12001 | 35932 ft | 456 kts | 192° |
| 2026-05-06 19:05 | 67.15421 | 16.09060 | 35936 ft | 456 kts | 192° |
| 2026-05-06 19:05 | 67.09183 | 16.06105 | 35941 ft | 456 kts | 192° |
| 2026-05-06 19:06 | 67.02941 | 16.03162 | 35936 ft | 456 kts | 192° |
| 2026-05-06 19:06 | 66.96700 | 16.00258 | 35936 ft | 456 kts | 192° |
| 2026-05-06 19:07 | 66.90454 | 15.97369 | 35940 ft | 456 kts | 192° |
| 2026-05-06 19:07 | 66.84204 | 15.94494 | 35946 ft | 456 kts | 192° |
| 2026-05-06 19:08 | 66.77956 | 15.91616 | 35937 ft | 457 kts | 192° |
| 2026-05-06 19:08 | 66.71708 | 15.88755 | 35930 ft | 457 kts | 192° |
| 2026-05-06 19:09 | 66.65450 | 15.85922 | 35940 ft | 457 kts | 192° |
| 2026-05-06 19:09 | 66.59198 | 15.83107 | 35945 ft | 456 kts | 192° |
| 2026-05-06 19:10 | 66.52981 | 15.80304 | 35949 ft | 457 kts | 192° |
| 2026-05-06 19:10 | 66.46731 | 15.77515 | 35951 ft | 456 kts | 192° |
| 2026-05-06 19:11 | 66.40481 | 15.74744 | 35941 ft | 456 kts | 192° |
| 2026-05-06 19:11 | 66.34240 | 15.71983 | 35950 ft | 456 kts | 192° |
| 2026-05-06 19:12 | 66.27998 | 15.69216 | 35950 ft | 455 kts | 192° |
| 2026-05-06 19:12 | 66.21757 | 15.66480 | 35954 ft | 455 kts | 192° |
| 2026-05-06 19:13 | 66.15523 | 15.63771 | 35955 ft | 454 kts | 192° |
| 2026-05-06 19:13 | 66.09296 | 15.61078 | 35941 ft | 455 kts | 192° |
| 2026-05-06 19:14 | 66.03065 | 15.58375 | 35935 ft | 454 kts | 192° |
| 2026-05-06 19:14 | 65.96837 | 15.55700 | 35931 ft | 454 kts | 192° |
| 2026-05-06 19:15 | 65.90650 | 15.53068 | 35940 ft | 454 kts | 192° |
| 2026-05-06 19:15 | 65.84424 | 15.50428 | 35921 ft | 454 kts | 192° |
| 2026-05-06 19:16 | 65.78200 | 15.47779 | 35893 ft | 454 kts | 192° |
| 2026-05-06 19:16 | 65.71989 | 15.45149 | 35908 ft | 453 kts | 192° |
| 2026-05-06 19:17 | 65.65782 | 15.42559 | 35923 ft | 452 kts | 192° |
| 2026-05-06 19:17 | 65.59583 | 15.39975 | 35928 ft | 452 kts | 192° |
| 2026-05-06 19:18 | 65.53383 | 15.37403 | 35935 ft | 452 kts | 192° |
| 2026-05-06 19:18 | 65.47226 | 15.34860 | 35934 ft | 452 kts | 192° |
| 2026-05-06 19:19 | 65.41029 | 15.32322 | 35947 ft | 452 kts | 192° |
| 2026-05-06 19:19 | 65.34839 | 15.29781 | 35951 ft | 451 kts | 192° |
| 2026-05-06 19:20 | 65.28652 | 15.27257 | 35956 ft | 451 kts | 192° |
| 2026-05-06 19:20 | 65.22463 | 15.24748 | 35956 ft | 451 kts | 192° |
| 2026-05-06 19:21 | 65.16275 | 15.22255 | 35962 ft | 451 kts | 192° |
| 2026-05-06 19:21 | 65.10088 | 15.19787 | 35956 ft | 450 kts | 192° |
| 2026-05-06 19:22 | 65.03908 | 15.17313 | 35961 ft | 450 kts | 192° |
| 2026-05-06 19:22 | 64.97729 | 15.14844 | 35966 ft | 450 kts | 192° |
| 2026-05-06 19:23 | 64.91547 | 15.12391 | 35971 ft | 450 kts | 192° |
| 2026-05-06 19:23 | 64.85363 | 15.09958 | 35974 ft | 451 kts | 192° |
| 2026-05-06 19:24 | 64.79221 | 15.07544 | 35967 ft | 450 kts | 192° |
| 2026-05-06 19:24 | 64.73050 | 15.05136 | 35976 ft | 450 kts | 192° |
| 2026-05-06 19:25 | 64.66872 | 15.02743 | 35981 ft | 450 kts | 192° |
| 2026-05-06 19:25 | 64.60701 | 15.00359 | 35983 ft | 450 kts | 192° |
| 2026-05-06 19:26 | 64.54531 | 14.97997 | 35980 ft | 449 kts | 192° |
| 2026-05-06 19:26 | 64.48361 | 14.95627 | 35976 ft | 449 kts | 193° |
| 2026-05-06 19:27 | 64.42206 | 14.93271 | 35986 ft | 448 kts | 192° |
| 2026-05-06 19:27 | 64.36044 | 14.90930 | 35988 ft | 448 kts | 192° |
| 2026-05-06 19:28 | 64.29896 | 14.88602 | 35986 ft | 447 kts | 192° |
| 2026-05-06 19:28 | 64.23757 | 14.86291 | 35983 ft | 447 kts | 192° |
| 2026-05-06 19:29 | 64.17656 | 14.84009 | 35969 ft | 447 kts | 193° |
| 2026-05-06 19:29 | 64.11522 | 14.81720 | 35977 ft | 446 kts | 193° |
| 2026-05-06 19:30 | 64.05393 | 14.79446 | 35983 ft | 446 kts | 193° |
| 2026-05-06 19:30 | 63.99267 | 14.77178 | 35986 ft | 446 kts | 193° |
| 2026-05-06 19:31 | 63.93135 | 14.74923 | 35985 ft | 446 kts | 193° |
| 2026-05-06 19:31 | 63.83948 | 14.71573 | 35982 ft | 445 kts | 193° |
| 2026-05-06 19:32 | 63.77829 | 14.69352 | 35982 ft | 446 kts | 193° |
| 2026-05-06 19:32 | 63.71710 | 14.67123 | 35976 ft | 445 kts | 193° |
| 2026-05-06 19:33 | 63.65589 | 14.64898 | 35974 ft | 445 kts | 193° |
| 2026-05-06 19:33 | 63.59470 | 14.62711 | 35951 ft | 445 kts | 193° |
| 2026-05-06 19:34 | 63.53350 | 14.60532 | 35963 ft | 445 kts | 193° |
| 2026-05-06 19:34 | 63.47278 | 14.58368 | 35966 ft | 445 kts | 193° |
| 2026-05-06 19:35 | 63.41167 | 14.56204 | 35969 ft | 444 kts | 193° |
| 2026-05-06 19:35 | 63.35061 | 14.54047 | 35966 ft | 444 kts | 193° |
| 2026-05-06 19:36 | 63.28962 | 14.51889 | 35945 ft | 444 kts | 193° |
| 2026-05-06 19:36 | 63.22863 | 14.49762 | 35911 ft | 444 kts | 193° |
| 2026-05-06 19:37 | 63.16771 | 14.47571 | 35925 ft | 443 kts | 194° |
| 2026-05-06 19:37 | 63.11739 | 14.45505 | 35927 ft | 442 kts | 194° |
| 2026-05-06 19:38 | 63.04720 | 14.42504 | 35934 ft | 442 kts | 194° |
| 2026-05-06 19:38 | 62.98679 | 14.39984 | 35915 ft | 442 kts | 194° |
| 2026-05-06 19:39 | 62.92639 | 14.37538 | 35943 ft | 441 kts | 194° |
| 2026-05-06 19:39 | 62.86604 | 14.35104 | 35957 ft | 441 kts | 194° |
| 2026-05-06 19:40 | 62.80574 | 14.32661 | 35962 ft | 440 kts | 194° |
| 2026-05-06 19:40 | 62.74547 | 14.30240 | 35964 ft | 440 kts | 194° |
| 2026-05-06 19:41 | 62.68523 | 14.27837 | 35935 ft | 440 kts | 194° |
| 2026-05-06 19:41 | 62.62511 | 14.25437 | 35950 ft | 439 kts | 194° |
| 2026-05-06 19:42 | 62.56499 | 14.23044 | 35959 ft | 439 kts | 194° |
| 2026-05-06 19:42 | 62.51507 | 14.21056 | 35962 ft | 439 kts | 194° |
| 2026-05-06 19:43 | 62.45497 | 14.18686 | 35955 ft | 439 kts | 194° |
| 2026-05-06 19:43 | 62.39485 | 14.16335 | 35935 ft | 439 kts | 194° |
| 2026-05-06 19:44 | 62.33485 | 14.13997 | 35938 ft | 438 kts | 194° |
| 2026-05-06 19:44 | 62.27501 | 14.11676 | 35936 ft | 437 kts | 194° |
| 2026-05-06 19:45 | 62.21521 | 14.09348 | 35931 ft | 437 kts | 194° |
| 2026-05-06 19:45 | 62.15536 | 14.07031 | 35925 ft | 438 kts | 194° |
| 2026-05-06 19:46 | 62.09543 | 14.04720 | 35917 ft | 438 kts | 195° |
| 2026-05-06 19:46 | 62.03552 | 14.02433 | 35933 ft | 438 kts | 195° |
| 2026-05-06 19:47 | 61.97598 | 14.00171 | 35938 ft | 437 kts | 195° |
| 2026-05-06 19:47 | 61.91614 | 13.97900 | 35938 ft | 436 kts | 195° |
| 2026-05-06 19:48 | 61.85639 | 13.95620 | 35934 ft | 436 kts | 195° |
| 2026-05-06 19:48 | 61.79660 | 13.93378 | 35912 ft | 436 kts | 195° |
| 2026-05-06 19:49 | 61.73682 | 13.91161 | 35924 ft | 436 kts | 195° |
| 2026-05-06 19:49 | 61.67706 | 13.88928 | 35935 ft | 436 kts | 195° |
| 2026-05-06 19:50 | 61.61729 | 13.86693 | 35944 ft | 436 kts | 195° |
| 2026-05-06 19:50 | 61.55750 | 13.84475 | 35948 ft | 436 kts | 195° |
| 2026-05-06 19:51 | 61.49774 | 13.82259 | 35921 ft | 436 kts | 195° |
| 2026-05-06 19:51 | 61.43808 | 13.80056 | 35938 ft | 435 kts | 195° |
| 2026-05-06 19:52 | 61.37846 | 13.77867 | 35947 ft | 435 kts | 195° |
| 2026-05-06 19:52 | 61.31932 | 13.75688 | 35949 ft | 434 kts | 195° |
| 2026-05-06 19:53 | 61.25981 | 13.73513 | 35947 ft | 434 kts | 195° |
| 2026-05-06 19:53 | 61.20031 | 13.71358 | 35920 ft | 433 kts | 195° |
| 2026-05-06 19:54 | 61.14091 | 13.69238 | 35945 ft | 433 kts | 195° |
| 2026-05-06 19:54 | 61.08161 | 13.67116 | 35946 ft | 432 kts | 195° |
| 2026-05-06 19:55 | 61.02246 | 13.64988 | 35944 ft | 431 kts | 195° |
| 2026-05-06 19:55 | 60.96335 | 13.62878 | 35945 ft | 431 kts | 195° |
| 2026-05-06 19:56 | 60.90430 | 13.60772 | 35943 ft | 431 kts | 195° |
| 2026-05-06 19:56 | 60.84530 | 13.58668 | 35940 ft | 430 kts | 195° |
| 2026-05-06 19:57 | 60.78622 | 13.56582 | 35940 ft | 431 kts | 195° |
| 2026-05-06 19:57 | 60.72717 | 13.54509 | 35939 ft | 431 kts | 195° |
| 2026-05-06 19:58 | 60.66810 | 13.52427 | 35937 ft | 431 kts | 195° |
| 2026-05-06 19:58 | 60.60902 | 13.50366 | 35915 ft | 430 kts | 195° |
| 2026-05-06 19:59 | 60.55000 | 13.48323 | 35929 ft | 430 kts | 195° |
| 2026-05-06 19:59 | 60.49098 | 13.46286 | 35936 ft | 430 kts | 195° |
| 2026-05-06 20:00 | 60.43197 | 13.44243 | 35941 ft | 430 kts | 195° |
| 2026-05-06 20:00 | 60.37300 | 13.42214 | 35944 ft | 430 kts | 195° |
| 2026-05-06 20:01 | 60.31447 | 13.40213 | 35929 ft | 429 kts | 195° |
| 2026-05-06 20:01 | 60.25560 | 13.38203 | 35940 ft | 429 kts | 195° |
| 2026-05-06 20:02 | 60.19673 | 13.36194 | 35948 ft | 429 kts | 195° |
| 2026-05-06 20:02 | 60.13790 | 13.34204 | 35952 ft | 428 kts | 195° |
| 2026-05-06 20:03 | 60.07909 | 13.32222 | 35913 ft | 428 kts | 195° |
| 2026-05-06 20:03 | 60.02034 | 13.30243 | 35929 ft | 428 kts | 195° |
| 2026-05-06 20:04 | 59.96169 | 13.28270 | 35943 ft | 428 kts | 195° |
| 2026-05-06 20:04 | 59.90298 | 13.26301 | 35947 ft | 428 kts | 195° |
| 2026-05-06 20:05 | 59.84430 | 13.24354 | 35949 ft | 428 kts | 195° |
| 2026-05-06 20:05 | 59.78560 | 13.22405 | 35902 ft | 427 kts | 195° |
| 2026-05-06 20:06 | 59.72679 | 13.20462 | 35941 ft | 431 kts | 195° |
| 2026-05-06 20:06 | 59.66738 | 13.18493 | 35948 ft | 435 kts | 195° |
| 2026-05-06 20:07 | 59.60747 | 13.16529 | 35947 ft | 438 kts | 195° |
| 2026-05-06 20:07 | 59.54719 | 13.14558 | 35947 ft | 439 kts | 194° |
| 2026-05-06 20:08 | 59.48685 | 13.12605 | 35945 ft | 439 kts | 194° |
| 2026-05-06 20:08 | 59.42657 | 13.10648 | 35956 ft | 439 kts | 194° |
| 2026-05-06 20:09 | 59.36622 | 13.08689 | 35964 ft | 440 kts | 194° |
| 2026-05-06 20:09 | 59.30588 | 13.06736 | 35969 ft | 440 kts | 194° |
| 2026-05-06 20:10 | 59.24556 | 13.04793 | 35964 ft | 439 kts | 194° |
| 2026-05-06 20:10 | 59.18563 | 13.02888 | 35953 ft | 428 kts | 194° |
| 2026-05-06 20:11 | 59.12799 | 13.01055 | 35954 ft | 420 kts | 194° |
| 2026-05-06 20:11 | 59.07035 | 12.99219 | 35954 ft | 419 kts | 194° |
| 2026-05-06 20:12 | 59.01275 | 12.97387 | 35961 ft | 419 kts | 194° |
| 2026-05-06 20:12 | 58.95516 | 12.95568 | 35961 ft | 419 kts | 194° |
| 2026-05-06 20:13 | 58.89754 | 12.93765 | 35941 ft | 419 kts | 194° |
| 2026-05-06 20:13 | 58.83992 | 12.91957 | 35958 ft | 419 kts | 194° |
| 2026-05-06 20:14 | 58.78237 | 12.90148 | 35962 ft | 419 kts | 194° |
| 2026-05-06 20:14 | 58.72483 | 12.88356 | 35953 ft | 419 kts | 194° |
| 2026-05-06 20:15 | 58.66733 | 12.86571 | 35919 ft | 419 kts | 194° |
| 2026-05-06 20:15 | 58.60969 | 12.84783 | 35928 ft | 419 kts | 194° |
| 2026-05-06 20:16 | 58.55215 | 12.83019 | 35932 ft | 419 kts | 194° |
| 2026-05-06 20:16 | 58.49457 | 12.81246 | 35937 ft | 419 kts | 194° |
| 2026-05-06 20:17 | 58.43699 | 12.79477 | 35943 ft | 419 kts | 194° |
| 2026-05-06 20:17 | 58.37973 | 12.77736 | 35915 ft | 420 kts | 194° |
| 2026-05-06 20:18 | 58.32201 | 12.75982 | 35949 ft | 420 kts | 194° |
| 2026-05-06 20:18 | 58.26427 | 12.74242 | 35954 ft | 420 kts | 194° |
| 2026-05-06 20:19 | 58.20654 | 12.72492 | 35960 ft | 420 kts | 194° |
| 2026-05-06 20:19 | 58.14875 | 12.70734 | 35967 ft | 421 kts | 194° |
| 2026-05-06 20:20 | 58.09095 | 12.68996 | 35968 ft | 420 kts | 194° |
| 2026-05-06 20:20 | 58.03312 | 12.67282 | 35977 ft | 421 kts | 194° |
| 2026-05-06 20:21 | 57.97529 | 12.65552 | 35976 ft | 421 kts | 194° |
| 2026-05-06 20:21 | 57.91743 | 12.63816 | 35983 ft | 421 kts | 194° |
| 2026-05-06 20:22 | 57.85954 | 12.62088 | 35984 ft | 421 kts | 194° |
| 2026-05-06 20:22 | 57.80156 | 12.60383 | 35964 ft | 422 kts | 194° |
| 2026-05-06 20:23 | 57.74348 | 12.58676 | 35971 ft | 423 kts | 193° |
| 2026-05-06 20:23 | 57.68537 | 12.56976 | 35980 ft | 423 kts | 194° |
| 2026-05-06 20:24 | 57.62719 | 12.55265 | 35982 ft | 423 kts | 194° |
| 2026-05-06 20:24 | 57.56901 | 12.53568 | 35956 ft | 423 kts | 193° |
| 2026-05-06 20:25 | 57.51075 | 12.51880 | 35958 ft | 424 kts | 193° |
| 2026-05-06 20:25 | 57.45250 | 12.50180 | 35961 ft | 425 kts | 193° |
| 2026-05-06 20:26 | 57.39410 | 12.48486 | 35973 ft | 425 kts | 193° |
| 2026-05-06 20:26 | 57.33604 | 12.46822 | 35980 ft | 425 kts | 193° |
| 2026-05-06 20:27 | 57.27762 | 12.45152 | 35960 ft | 425 kts | 193° |
| 2026-05-06 20:27 | 57.21916 | 12.43480 | 35965 ft | 425 kts | 193° |
| 2026-05-06 20:28 | 57.16073 | 12.41815 | 35965 ft | 425 kts | 193° |
| 2026-05-06 20:28 | 57.10224 | 12.40158 | 35970 ft | 426 kts | 193° |
| 2026-05-06 20:29 | 57.04368 | 12.38494 | 35980 ft | 425 kts | 193° |
| 2026-05-06 20:29 | 56.98519 | 12.36836 | 35961 ft | 426 kts | 193° |
| 2026-05-06 20:30 | 56.89733 | 12.34362 | 35974 ft | 426 kts | 193° |
| 2026-05-06 20:31 | 56.83876 | 12.32733 | 35980 ft | 426 kts | 193° |
| 2026-05-06 20:31 | 56.78015 | 12.31101 | 35984 ft | 426 kts | 193° |
| 2026-05-06 20:32 | 56.72155 | 12.29463 | 35970 ft | 426 kts | 192° |
| 2026-05-06 20:32 | 56.66331 | 12.27837 | 35977 ft | 427 kts | 192° |
| 2026-05-06 20:33 | 56.60453 | 12.26204 | 35960 ft | 427 kts | 192° |
| 2026-05-06 20:33 | 56.55530 | 12.24849 | 35974 ft | 427 kts | 192° |
| 2026-05-06 20:34 | 56.49694 | 12.23251 | 35971 ft | 427 kts | 192° |
| 2026-05-06 20:34 | 56.43816 | 12.21638 | 35978 ft | 427 kts | 192° |
| 2026-05-06 20:35 | 56.37937 | 12.20019 | 35979 ft | 428 kts | 192° |
| 2026-05-06 20:35 | 56.32048 | 12.18377 | 35990 ft | 427 kts | 195° |
| 2026-05-06 20:36 | 56.26348 | 12.15565 | 35994 ft | 425 kts | 199° |
| 2026-05-06 20:36 | 56.20661 | 12.12623 | 35981 ft | 425 kts | 199° |
| 2026-05-06 20:37 | 56.14971 | 12.09677 | 35983 ft | 426 kts | 199° |
| 2026-05-06 20:37 | 56.09269 | 12.06753 | 35988 ft | 426 kts | 199° |
| 2026-05-06 20:38 | 56.03563 | 12.03850 | 35994 ft | 427 kts | 199° |
| 2026-05-06 20:38 | 55.97849 | 12.00944 | 35976 ft | 427 kts | 198° |
| 2026-05-06 20:39 | 55.92134 | 11.98039 | 35982 ft | 428 kts | 198° |
| 2026-05-06 20:39 | 55.86405 | 11.95125 | 35987 ft | 429 kts | 198° |
| 2026-05-06 20:40 | 55.80665 | 11.92228 | 35994 ft | 429 kts | 198° |
| 2026-05-06 20:40 | 55.74963 | 11.89353 | 36000 ft | 429 kts | 198° |
| 2026-05-06 20:41 | 55.69217 | 11.86472 | 35993 ft | 429 kts | 198° |
| 2026-05-06 20:41 | 55.63466 | 11.83601 | 35993 ft | 430 kts | 198° |
| 2026-05-06 20:42 | 55.57709 | 11.80718 | 35999 ft | 430 kts | 198° |
| 2026-05-06 20:42 | 55.51952 | 11.77851 | 35996 ft | 430 kts | 198° |
| 2026-05-06 20:43 | 55.46193 | 11.74993 | 36002 ft | 430 kts | 198° |
| 2026-05-06 20:43 | 55.40427 | 11.72140 | 36005 ft | 430 kts | 198° |
| 2026-05-06 20:44 | 55.34659 | 11.69292 | 35996 ft | 431 kts | 198° |
| 2026-05-06 20:44 | 55.28892 | 11.66458 | 35998 ft | 430 kts | 198° |
| 2026-05-06 20:45 | 55.23123 | 11.63634 | 36002 ft | 430 kts | 198° |
| 2026-05-06 20:45 | 55.17350 | 11.60815 | 35998 ft | 431 kts | 198° |
| 2026-05-06 20:46 | 55.11574 | 11.57992 | 35989 ft | 431 kts | 198° |
| 2026-05-06 20:46 | 55.05796 | 11.55186 | 35987 ft | 431 kts | 198° |
| 2026-05-06 20:47 | 55.00008 | 11.52399 | 35987 ft | 432 kts | 198° |
| 2026-05-06 20:47 | 54.94219 | 11.49610 | 35972 ft | 432 kts | 198° |
| 2026-05-06 20:48 | 54.88425 | 11.46814 | 35971 ft | 433 kts | 198° |
| 2026-05-06 20:48 | 54.82622 | 11.44023 | 35967 ft | 432 kts | 198° |
| 2026-05-06 20:49 | 54.76861 | 11.41265 | 35969 ft | 432 kts | 198° |
| 2026-05-06 20:49 | 54.71062 | 11.38501 | 35948 ft | 432 kts | 198° |
| 2026-05-06 20:50 | 54.65262 | 11.35749 | 35956 ft | 433 kts | 198° |
| 2026-05-06 20:50 | 54.59454 | 11.32994 | 35950 ft | 433 kts | 198° |
| 2026-05-06 20:51 | 54.53572 | 11.30742 | 35953 ft | 435 kts | 191° |
| 2026-05-06 20:51 | 54.47575 | 11.29266 | 35931 ft | 435 kts | 191° |
| 2026-05-06 20:52 | 54.41580 | 11.27780 | 35933 ft | 436 kts | 191° |
| 2026-05-06 20:52 | 54.35575 | 11.26296 | 35927 ft | 436 kts | 191° |
| 2026-05-06 20:53 | 54.29614 | 11.24828 | 35934 ft | 436 kts | 191° |
| 2026-05-06 20:53 | 54.23566 | 11.23348 | 35941 ft | 436 kts | 190° |
| 2026-05-06 20:54 | 54.17558 | 11.21878 | 35932 ft | 436 kts | 190° |
| 2026-05-06 20:54 | 54.11550 | 11.20417 | 35936 ft | 436 kts | 190° |
| 2026-05-06 20:55 | 54.05588 | 11.18970 | 35943 ft | 436 kts | 190° |
| 2026-05-06 20:55 | 53.99577 | 11.17508 | 35933 ft | 436 kts | 190° |
| 2026-05-06 20:56 | 53.93575 | 11.16061 | 35929 ft | 435 kts | 190° |
| 2026-05-06 20:56 | 53.87574 | 11.14623 | 35924 ft | 435 kts | 190° |
| 2026-05-06 20:57 | 53.81574 | 11.13186 | 35924 ft | 435 kts | 190° |
| 2026-05-06 20:57 | 53.75574 | 11.11745 | 35925 ft | 436 kts | 190° |
| 2026-05-06 20:58 | 53.69567 | 11.10305 | 35922 ft | 436 kts | 191° |
| 2026-05-06 20:58 | 53.63558 | 11.08881 | 35930 ft | 436 kts | 191° |
| 2026-05-06 20:59 | 53.57551 | 11.07451 | 35930 ft | 436 kts | 191° |
| 2026-05-06 20:59 | 53.51534 | 11.06016 | 35930 ft | 436 kts | 191° |
| 2026-05-06 21:00 | 53.45522 | 11.04599 | 35919 ft | 436 kts | 190° |
| 2026-05-06 21:00 | 53.39521 | 11.03193 | 35928 ft | 435 kts | 190° |
| 2026-05-06 21:01 | 53.33526 | 11.01790 | 35920 ft | 435 kts | 190° |
| 2026-05-06 21:01 | 53.27550 | 11.00389 | 35916 ft | 435 kts | 190° |
| 2026-05-06 21:02 | 53.21545 | 10.98977 | 35900 ft | 435 kts | 190° |
| 2026-05-06 21:02 | 53.15558 | 10.97592 | 35906 ft | 434 kts | 190° |
| 2026-05-06 21:03 | 53.09569 | 10.96210 | 35912 ft | 434 kts | 190° |
| 2026-05-06 21:03 | 53.03593 | 10.94825 | 35909 ft | 433 kts | 190° |
| 2026-05-06 21:04 | 52.97619 | 10.93445 | 35905 ft | 433 kts | 190° |
| 2026-05-06 21:04 | 52.91646 | 10.92059 | 35901 ft | 433 kts | 190° |
| 2026-05-06 21:05 | 52.85668 | 10.90687 | 35905 ft | 434 kts | 190° |
| 2026-05-06 21:05 | 52.79692 | 10.89321 | 35897 ft | 433 kts | 190° |
| 2026-05-06 21:06 | 52.73718 | 10.87957 | 35883 ft | 434 kts | 190° |
| 2026-05-06 21:06 | 52.67740 | 10.86597 | 35889 ft | 433 kts | 190° |
| 2026-05-06 21:07 | 52.61768 | 10.85244 | 35893 ft | 433 kts | 190° |
| 2026-05-06 21:07 | 52.55796 | 10.83896 | 35882 ft | 433 kts | 190° |
| 2026-05-06 21:08 | 52.49826 | 10.82546 | 35869 ft | 433 kts | 190° |
| 2026-05-06 21:08 | 52.43858 | 10.81206 | 35876 ft | 433 kts | 190° |
| 2026-05-06 21:09 | 52.37893 | 10.79865 | 35880 ft | 432 kts | 191° |
| 2026-05-06 21:09 | 52.32161 | 10.77138 | 35878 ft | 429 kts | 201° |
| 2026-05-06 21:10 | 52.26531 | 10.73903 | 35865 ft | 429 kts | 200° |
| 2026-05-06 21:10 | 52.20937 | 10.70721 | 35871 ft | 429 kts | 200° |
| 2026-05-06 21:11 | 52.15306 | 10.67532 | 35869 ft | 428 kts | 200° |
| 2026-05-06 21:11 | 52.09680 | 10.64337 | 35868 ft | 428 kts | 201° |
| 2026-05-06 21:12 | 52.04056 | 10.61153 | 35853 ft | 428 kts | 200° |
| 2026-05-06 21:12 | 51.98439 | 10.57993 | 35847 ft | 427 kts | 200° |
| 2026-05-06 21:13 | 51.92836 | 10.54848 | 35854 ft | 426 kts | 200° |
| 2026-05-06 21:13 | 51.87234 | 10.51710 | 35845 ft | 426 kts | 200° |
| 2026-05-06 21:14 | 51.81633 | 10.48579 | 35844 ft | 426 kts | 200° |
| 2026-05-06 21:14 | 51.76042 | 10.45450 | 35838 ft | 425 kts | 200° |
| 2026-05-06 21:15 | 51.70453 | 10.42345 | 35837 ft | 425 kts | 200° |
| 2026-05-06 21:15 | 51.64868 | 10.39248 | 35837 ft | 424 kts | 200° |
| 2026-05-06 21:16 | 51.59320 | 10.36178 | 35834 ft | 424 kts | 200° |
| 2026-05-06 21:16 | 51.53741 | 10.33109 | 35829 ft | 423 kts | 200° |
| 2026-05-06 21:17 | 51.48175 | 10.30049 | 35832 ft | 422 kts | 200° |
| 2026-05-06 21:17 | 51.42618 | 10.26991 | 35828 ft | 422 kts | 200° |
| 2026-05-06 21:18 | 51.37098 | 10.23966 | 35549 ft | 412 kts | 200° |
| 2026-05-06 21:18 | 51.34387 | 10.22676 | 35298 ft | 403 kts | 194° |
| 2026-05-06 21:18 | 51.31637 | 10.21978 | 35051 ft | 398 kts | 186° |
| 2026-05-06 21:18 | 51.28876 | 10.21836 | 34809 ft | 395 kts | 183° |
| 2026-05-06 21:19 | 51.26132 | 10.21792 | 34564 ft | 392 kts | 183° |
| 2026-05-06 21:19 | 51.23415 | 10.21740 | 34332 ft | 389 kts | 183° |
| 2026-05-06 21:19 | 51.20719 | 10.21685 | 34096 ft | 386 kts | 183° |
| 2026-05-06 21:19 | 51.18039 | 10.21629 | 33861 ft | 384 kts | 183° |
| 2026-05-06 21:20 | 51.15383 | 10.21573 | 33586 ft | 381 kts | 183° |
| 2026-05-06 21:20 | 51.13629 | 10.21535 | 33400 ft | 379 kts | 183° |
| 2026-05-06 21:20 | 51.10112 | 10.21463 | 33030 ft | 376 kts | 182° |
| 2026-05-06 21:20 | 51.07502 | 10.21420 | 32759 ft | 374 kts | 182° |
| 2026-05-06 21:21 | 51.04908 | 10.21380 | 32488 ft | 372 kts | 182° |
| 2026-05-06 21:21 | 51.03195 | 10.21350 | 32311 ft | 371 kts | 182° |
| 2026-05-06 21:21 | 51.00616 | 10.21299 | 32045 ft | 370 kts | 182° |
| 2026-05-06 21:21 | 50.98049 | 10.21246 | 31781 ft | 368 kts | 182° |
| 2026-05-06 21:22 | 50.94666 | 10.21180 | 31442 ft | 366 kts | 182° |
| 2026-05-06 21:22 | 50.92125 | 10.21138 | 31166 ft | 365 kts | 182° |
| 2026-05-06 21:22 | 50.89568 | 10.21101 | 30343 ft | 371 kts | 181° |
| 2026-05-06 21:22 | 50.87835 | 10.21076 | 30118 ft | 366 kts | 181° |
| 2026-05-06 21:23 | 50.85317 | 10.20763 | 29561 ft | 364 kts | 189° |
| 2026-05-06 21:23 | 50.82872 | 10.19717 | 28627 ft | 362 kts | 200° |
| 2026-05-06 21:23 | 50.80640 | 10.17923 | 27744 ft | 359 kts | 212° |
| 2026-05-06 21:23 | 50.78704 | 10.15448 | 26889 ft | 357 kts | 223° |
| 2026-05-06 21:24 | 50.77131 | 10.12423 | 26064 ft | 358 kts | 234° |
| 2026-05-06 21:24 | 50.75917 | 10.08925 | 25260 ft | 368 kts | 241° |
| 2026-05-06 21:24 | 50.74763 | 10.05282 | 24594 ft | 370 kts | 241° |
| 2026-05-06 21:24 | 50.73631 | 10.01727 | 24020 ft | 358 kts | 241° |
| 2026-05-06 21:25 | 50.72514 | 9.98244 | 23219 ft | 354 kts | 241° |
| 2026-05-06 21:25 | 50.71405 | 9.94798 | 22313 ft | 350 kts | 242° |
| 2026-05-06 21:25 | 50.70303 | 9.91387 | 21425 ft | 347 kts | 242° |
| 2026-05-06 21:25 | 50.69213 | 9.88007 | 20577 ft | 344 kts | 242° |
| 2026-05-06 21:26 | 50.68133 | 9.84658 | 19745 ft | 342 kts | 242° |
| 2026-05-06 21:26 | 50.67055 | 9.81323 | 18891 ft | 340 kts | 242° |
| 2026-05-06 21:26 | 50.65985 | 9.78009 | 18048 ft | 339 kts | 243° |
| 2026-05-06 21:26 | 50.64919 | 9.74705 | 17099 ft | 337 kts | 243° |
| 2026-05-06 21:27 | 50.63818 | 9.71454 | 16192 ft | 335 kts | 237° |
| 2026-05-06 21:27 | 50.62362 | 9.68616 | 15303 ft | 333 kts | 224° |
| 2026-05-06 21:27 | 50.60537 | 9.66396 | 14437 ft | 331 kts | 211° |
| 2026-05-06 21:27 | 50.58453 | 9.64870 | 13590 ft | 330 kts | 202° |
| 2026-05-06 21:28 | 50.56329 | 9.63553 | 12660 ft | 332 kts | 206° |
| 2026-05-06 21:28 | 50.54340 | 9.61381 | 11823 ft | 364 kts | 224° |
| 2026-05-06 21:28 | 50.52556 | 9.58480 | 11123 ft | 372 kts | 226° |
| 2026-05-06 21:28 | 50.50779 | 9.55499 | 10891 ft | 376 kts | 227° |
| 2026-05-06 21:29 | 50.49044 | 9.52553 | 10816 ft | 356 kts | 227° |
| 2026-05-06 21:29 | 50.47420 | 9.49788 | 10795 ft | 335 kts | 227° |
| 2026-05-06 21:29 | 50.45890 | 9.47194 | 10571 ft | 323 kts | 227° |
| 2026-05-06 21:29 | 50.44379 | 9.44642 | 10213 ft | 314 kts | 227° |
| 2026-05-06 21:30 | 50.42936 | 9.42212 | 9866 ft | 295 kts | 227° |
| 2026-05-06 21:30 | 50.41581 | 9.39940 | 9591 ft | 279 kts | 227° |
| 2026-05-06 21:30 | 50.40270 | 9.37741 | 9300 ft | 274 kts | 227° |
| 2026-05-06 21:30 | 50.38973 | 9.35571 | 8971 ft | 272 kts | 227° |
| 2026-05-06 21:31 | 50.37688 | 9.33429 | 8652 ft | 263 kts | 227° |
| 2026-05-06 21:31 | 50.36481 | 9.31417 | 8525 ft | 248 kts | 227° |
| 2026-05-06 21:31 | 50.35273 | 9.29402 | 8251 ft | 256 kts | 227° |
| 2026-05-06 21:31 | 50.34050 | 9.27365 | 7969 ft | 257 kts | 227° |
| 2026-05-06 21:32 | 50.32809 | 9.25297 | 7680 ft | 264 kts | 227° |
| 2026-05-06 21:32 | 50.30330 | 9.21169 | 7031 ft | 249 kts | 227° |
| 2026-05-06 21:32 | 50.29173 | 9.19247 | 6712 ft | 236 kts | 227° |
| 2026-05-06 21:33 | 50.28076 | 9.17424 | 6386 ft | 225 kts | 227° |
| 2026-05-06 21:33 | 50.27028 | 9.15684 | 6057 ft | 216 kts | 227° |
| 2026-05-06 21:33 | 50.26012 | 9.13997 | 5724 ft | 212 kts | 227° |
| 2026-05-06 21:33 | 50.24995 | 9.12310 | 5388 ft | 214 kts | 228° |
| 2026-05-06 21:34 | 50.23979 | 9.10630 | 5165 ft | 209 kts | 227° |
| 2026-05-06 21:34 | 50.23006 | 9.09021 | 5061 ft | 198 kts | 228° |
| 2026-05-06 21:34 | 50.22089 | 9.07505 | 4941 ft | 185 kts | 227° |
| 2026-05-06 21:34 | 50.21187 | 9.06011 | 4975 ft | 200 kts | 228° |
| 2026-05-06 21:35 | 50.20214 | 9.04402 | 4991 ft | 206 kts | 227° |
| 2026-05-06 21:35 | 50.19197 | 9.02808 | 4995 ft | 209 kts | 221° |
| 2026-05-06 21:35 | 50.17989 | 9.01557 | 4993 ft | 209 kts | 209° |
| 2026-05-06 21:35 | 50.16617 | 9.00762 | 4826 ft | 209 kts | 195° |
| 2026-05-06 21:36 | 50.15214 | 9.00346 | 4656 ft | 201 kts | 193° |
| 2026-05-06 21:36 | 50.13846 | 8.99942 | 4494 ft | 199 kts | 193° |
| 2026-05-06 21:36 | 50.12497 | 8.99536 | 4363 ft | 194 kts | 193° |
| 2026-05-06 21:36 | 50.11193 | 8.99136 | 4209 ft | 190 kts | 197° |
| 2026-05-06 21:37 | 50.09962 | 8.98384 | 4060 ft | 193 kts | 210° |
| 2026-05-06 21:37 | 50.08910 | 8.97183 | 3917 ft | 189 kts | 226° |
| 2026-05-06 21:37 | 50.08084 | 8.95626 | 3775 ft | 186 kts | 240° |
| 2026-05-06 21:37 | 50.07525 | 8.93820 | 3628 ft | 185 kts | 253° |
| 2026-05-06 21:38 | 50.07125 | 8.91934 | 3483 ft | 183 kts | 253° |
| 2026-05-06 21:38 | 50.06726 | 8.90064 | 3332 ft | 181 kts | 254° |
| 2026-05-06 21:38 | 50.06327 | 8.88206 | 3202 ft | 181 kts | 255° |
| 2026-05-06 21:38 | 50.06111 | 8.86295 | 3050 ft | 179 kts | 270° |
| 2026-05-06 21:39 | 50.06185 | 8.84371 | 2921 ft | 178 kts | 277° |
| 2026-05-06 21:39 | 50.06286 | 8.82454 | 2752 ft | 178 kts | 276° |
| 2026-05-06 21:39 | 50.06380 | 8.80543 | 2608 ft | 176 kts | 276° |
| 2026-05-06 21:39 | 50.06473 | 8.78645 | 2487 ft | 175 kts | 276° |
| 2026-05-06 21:40 | 50.06571 | 8.76753 | 2368 ft | 176 kts | 276° |
| 2026-05-06 21:40 | 50.06669 | 8.74850 | 2252 ft | 175 kts | 276° |
| 2026-05-06 21:40 | 50.06760 | 8.72975 | 2115 ft | 169 kts | 276° |
| 2026-05-06 21:40 | 50.06836 | 8.71213 | 1945 ft | 158 kts | 275° |
| 2026-05-06 21:41 | 50.06842 | 8.69547 | 1743 ft | 149 kts | 266° |
| 2026-05-06 21:41 | 50.06645 | 8.67988 | 1481 ft | 146 kts | 259° |
| 2026-05-06 21:41 | 50.06352 | 8.66491 | 1435 ft | 143 kts | 255° |
| 2026-05-06 21:41 | 50.05993 | 8.64961 | 1327 ft | 157 kts | 252° |
| 2026-05-06 21:42 | 50.05601 | 8.63341 | 1190 ft | 161 kts | 252° |
| 2026-05-06 21:42 | 50.05221 | 8.61696 | 895 ft | 160 kts | 251° |
| 2026-05-06 21:42 | 50.04847 | 8.60107 | 614 ft | 151 kts | 251° |
| 2026-05-06 21:42 | 50.04497 | 8.58631 | 409 ft | 139 kts | 251° |
| 2026-05-06 21:43 | 50.04198 | 8.57353 | 365 ft | 107 kts | 249° |
| 2026-05-06 21:43 | 50.03992 | 8.56518 | 357 ft | 58 kts | 250° |
| 2026-05-06 21:43 | 50.03897 | 8.56097 | 353 ft | 30 kts | 255° |
| 2026-05-06 21:43 | 50.03891 | 8.55810 | 352 ft | 18 kts | 278° |
| 2026-05-06 21:44 | 50.03911 | 8.55661 | 355 ft | 12 kts | 305° |
| 2026-05-06 21:44 | 50.03974 | 8.55653 | 352 ft | 8 kts | 34° |
| 2026-05-06 21:44 | 50.03994 | 8.55718 | 352 ft | 7 kts | 73° |
| 2026-05-06 21:44 | 50.04015 | 8.55811 | 353 ft | 12 kts | 70° |
| 2026-05-06 21:45 | 50.04040 | 8.55916 | 354 ft | 7 kts | 70° |
| 2026-05-06 21:45 | 50.04056 | 8.55985 | 355 ft | 8 kts | 70° |
| 2026-05-06 21:45 | 50.04089 | 8.56123 | 358 ft | 18 kts | 69° |
| 2026-05-06 21:45 | 50.04130 | 8.56294 | 355 ft | 16 kts | 69° |
| 2026-05-06 21:46 | 50.04166 | 8.56444 | 355 ft | 13 kts | 70° |
| 2026-05-06 21:46 | 50.04196 | 8.56570 | 361 ft | 11 kts | 69° |
| 2026-05-06 21:46 | 50.04221 | 8.56671 | 364 ft | 9 kts | 69° |
| 2026-05-06 21:46 | 50.04240 | 8.56750 | 363 ft | 10 kts | 66° |
| 2026-05-06 21:47 | 50.04304 | 8.56814 | 360 ft | 14 kts | 12° |
| 2026-05-06 21:47 | 50.04396 | 8.56842 | 366 ft | 13 kts | 10° |
| 2026-05-06 21:47 | 50.04481 | 8.56866 | 359 ft | 12 kts | 14° |
| 2026-05-06 21:47 | 50.04558 | 8.56895 | 363 ft | 11 kts | 13° |
| 2026-05-06 21:48 | 50.04641 | 8.56925 | 356 ft | 12 kts | 19° |
| 2026-05-06 21:48 | 50.04713 | 8.56978 | 359 ft | 11 kts | 24° |
| 2026-05-06 21:48 | 50.04765 | 8.57002 | 359 ft | 3 kts | 356° |
| 2026-05-06 21:48 | 50.04780 | 8.56992 | 356 ft | 2 kts | 330° |
| 2026-05-06 21:49 | 50.04792 | 8.56965 | 359 ft | 5 kts | 292° |
| 2026-05-06 21:49 | 50.04800 | 8.56924 | 356 ft | 3 kts | 293° |
| 2026-05-06 21:49 | 50.04802 | 8.56916 | 356 ft | 0 kts | 293° |